Farley, Iowa
Current Conditions -  °F | °C
As of 12:53 PM on Thursday 27 Nov 2014 (Local Time) from KDBQ Reporting Station
Clear Clear  
Wind Chill:   Ceiling: Unl
Heat Index: 18°   Visibility: 10mi
Dew Point:   Wind: 12mph
Humidity: 65%   Direction: 350°N
Pressure: 30.38"   Gusts: NA
Location:  42.44°N, 91.01°W
Report Text: KDBQ 271853Z 35010KT 10SM CLR M08/M13 A3038 RMK AO2 SLP307 T10781133
Loading
Personal Weather Stations






























Interactive Weather Map New forecast layout! Learn more

10-Day Weather Forecast

Advertisements
Track Severe Weather on mobile